Time;durP1;ratioP1;P1;durP2;ratioP2;P2;SDS_P1;SDS_P2;PMS_P1;PMS_P2;Temp;Humidity;BMP_temperature;BMP_pressure;BME280_temperature;BME280_humidity;BME280_pressure;Samples;Min_cycle;Max_cycle;Signal;HPM_P1;HPM_P2
2022/03/15 00:00:24;;;;;;;17.83;9.60;;;3.30;99.90;;;;;;4968922;28;20043;-74
2022/03/15 00:02:50;;;;;;;21.52;10.43;;;3.40;99.90;;;;;;4985597;28;20051;-74
2022/03/15 00:05:17;;;;;;;21.85;11.82;;;3.20;99.90;;;;;;4989606;28;20403;-74
2022/03/15 00:07:44;;;;;;;19.42;9.73;;;3.40;99.90;;;;;;4990109;28;20051;-74
2022/03/15 00:10:12;;;;;;;21.90;10.90;;;3.30;99.90;;;;;;4989335;28;20053;-74
2022/03/15 00:12:39;;;;;;;23.55;12.15;;;3.30;99.90;;;;;;4973228;28;20069;-73
2022/03/15 00:15:07;;;;;;;23.95;12.13;;;3.30;99.90;;;;;;4984388;28;20110;-74
2022/03/15 00:17:37;;;;;;;21.40;12.73;;;3.30;99.90;;;;;;4986722;28;20054;-74
2022/03/15 00:20:05;;;;;;;22.50;12.75;;;3.40;99.90;;;;;;4985133;28;20043;-74
2022/03/15 00:22:35;;;;;;;22.65;12.32;;;3.50;99.90;;;;;;4985786;28;20050;-74
2022/03/15 00:25:05;;;;;;;19.58;12.68;;;3.50;99.90;;;;;;4983516;28;20066;-74
2022/03/15 00:27:32;;;;;;;;;;;3.50;99.90;;;;;;4985871;28;20059;-74
2022/03/15 00:29:58;;;;;;;30.13;13.65;;;3.50;99.90;;;;;;4987293;28;19922;-74
2022/03/15 00:32:24;;;;;;;25.83;13.35;;;3.90;99.90;;;;;;4984978;28;20134;-74
2022/03/15 00:34:50;;;;;;;28.48;14.40;;;3.90;99.90;;;;;;4985898;28;20055;-74
2022/03/15 00:37:15;;;;;;;26.40;13.65;;;4.00;99.90;;;;;;4988174;28;20054;-73
2022/03/15 00:39:42;;;;;;;25.73;13.57;;;4.20;99.90;;;;;;4988747;28;20054;-74
2022/03/15 00:42:08;;;;;;;23.65;13.27;;;4.20;99.90;;;;;;4983821;28;20046;-73
2022/03/15 00:44:34;;;;;;;30.23;13.65;;;4.30;99.90;;;;;;4986120;28;20082;-74
2022/03/15 00:47:01;;;;;;;30.35;15.75;;;4.30;99.90;;;;;;4989147;28;20035;-74
2022/03/15 00:49:28;;;;;;;28.15;13.90;;;4.30;99.90;;;;;;4987504;28;20062;-74
2022/03/15 00:51:54;;;;;;;25.65;12.80;;;4.50;99.90;;;;;;4990241;28;20102;-74
2022/03/15 00:54:23;;;;;;;20.45;12.45;;;4.20;99.90;;;;;;4989774;28;20570;-73
2022/03/15 00:56:49;;;;;;;20.42;11.05;;;4.30;99.90;;;;;;4984434;28;20061;-74
2022/03/15 00:59:15;;;;;;;22.98;11.88;;;4.20;99.90;;;;;;4984368;28;20111;-73
2022/03/15 01:01:41;;;;;;;22.85;11.82;;;4.20;99.90;;;;;;4988779;28;20069;-73
2022/03/15 01:04:07;;;;;;;21.02;11.40;;;4.10;99.90;;;;;;4987195;28;20051;-74
2022/03/15 01:06:34;;;;;;;19.20;12.70;;;4.10;99.90;;;;;;4983249;28;20051;-74
2022/03/15 01:09:02;;;;;;;22.25;12.43;;;3.70;99.90;;;;;;4984824;28;20047;-73
2022/03/15 01:11:27;;;;;;;21.63;11.68;;;3.80;99.90;;;;;;4984304;28;20063;-74
2022/03/15 01:13:53;;;;;;;26.33;12.38;;;3.70;99.90;;;;;;4987121;28;20043;-73
2022/03/15 01:16:20;;;;;;;21.33;11.45;;;4.00;99.90;;;;;;4990031;28;20042;-74
2022/03/15 01:18:46;;;;;;;24.17;11.90;;;3.80;99.90;;;;;;4977377;28;20047;-73
2022/03/15 01:21:15;;;;;;;19.52;11.45;;;3.70;99.90;;;;;;4995156;28;20081;-74
2022/03/15 01:23:41;;;;;;;21.87;11.50;;;3.60;99.90;;;;;;4980993;28;20042;-74
2022/03/15 01:26:08;;;;;;;21.65;12.35;;;3.70;99.90;;;;;;4989696;28;20353;-73
2022/03/15 01:28:33;;;;;;;22.83;11.63;;;3.60;99.90;;;;;;4991084;28;20042;-74
2022/03/15 01:30:59;;;;;;;21.67;11.30;;;3.70;99.90;;;;;;4990759;28;20060;-73
2022/03/15 01:33:25;;;;;;;27.00;12.98;;;3.50;99.90;;;;;;4988335;28;20046;-74
2022/03/15 01:35:51;;;;;;;25.60;12.75;;;3.50;99.90;;;;;;4990102;28;20260;-74
2022/03/15 01:38:17;;;;;;;18.15;11.00;;;3.60;99.90;;;;;;4989673;28;20051;-74
2022/03/15 01:40:43;;;;;;;17.75;10.88;;;3.40;99.90;;;;;;4992287;28;20050;-73
2022/03/15 01:43:08;;;;;;;16.02;11.10;;;3.40;99.90;;;;;;4990956;28;20086;-73
2022/03/15 01:45:39;;;;;;;20.77;10.43;;;3.30;99.90;;;;;;4989004;28;20130;-74
2022/03/15 01:48:07;;;;;;;15.43;10.27;;;3.30;99.90;;;;;;4989806;28;20055;-74
2022/03/15 01:50:33;;;;;;;20.13;12.52;;;3.50;99.90;;;;;;4987743;28;20054;-74
2022/03/15 01:52:59;;;;;;;16.15;10.20;;;3.40;99.90;;;;;;4986586;28;20047;-73
2022/03/15 01:55:25;;;;;;;15.20;10.52;;;3.40;99.90;;;;;;4992545;28;20055;-73
2022/03/15 01:57:51;;;;;;;20.55;10.52;;;3.20;99.90;;;;;;4992276;28;20429;-73
2022/03/15 02:00:18;;;;;;;14.50;9.88;;;3.20;99.90;;;;;;4988570;28;20038;-73
2022/03/15 02:02:45;;;;;;;19.27;11.60;;;3.30;99.90;;;;;;4991933;28;20046;-74
2022/03/15 02:05:11;;;;;;;17.52;10.02;;;3.20;99.90;;;;;;4988409;28;20038;-73
2022/03/15 02:07:37;;;;;;;13.82;11.25;;;3.30;99.90;;;;;;4991006;28;20050;-74
2022/03/15 02:10:05;;;;;;;15.82;10.20;;;3.30;99.90;;;;;;4989921;28;20039;-74
2022/03/15 02:12:31;;;;;;;13.88;9.50;;;3.00;99.90;;;;;;4987866;28;20081;-74
2022/03/15 02:15:03;;;;;;;15.10;9.05;;;2.90;99.90;;;;;;4990345;28;20031;-74
2022/03/15 02:17:29;;;;;;;11.75;9.23;;;2.70;99.90;;;;;;4991013;28;20090;-74
2022/03/15 02:19:55;;;;;;;9.43;7.60;;;2.70;99.90;;;;;;4992941;28;20058;-74
2022/03/15 02:22:22;;;;;;;6.88;5.60;;;2.60;99.90;;;;;;4994200;28;20298;-73
2022/03/15 02:24:48;;;;;;;19.35;9.50;;;2.70;99.90;;;;;;4988309;28;20472;-74
2022/03/15 02:27:15;;;;;;;14.93;11.45;;;2.60;99.90;;;;;;4993332;28;20105;-74
2022/03/15 02:29:41;;;;;;;14.27;11.73;;;2.50;99.90;;;;;;4988236;28;20046;-73
2022/03/15 02:32:07;;;;;;;11.00;9.07;;;2.50;99.90;;;;;;4993022;28;20049;-72
2022/03/15 02:34:34;;;;;;;11.43;8.90;;;2.20;99.90;;;;;;4991728;28;20039;-75
2022/03/15 02:37:00;;;;;;;13.93;9.32;;;2.10;99.90;;;;;;4981598;28;20066;-72
2022/03/15 02:39:26;;;;;;;13.82;9.20;;;2.20;99.90;;;;;;4989945;28;20051;-72
2022/03/15 02:41:52;;;;;;;13.88;8.95;;;2.50;99.90;;;;;;4990472;28;20057;-75
2022/03/15 02:44:17;;;;;;;10.00;8.32;;;2.40;99.90;;;;;;4989922;28;20053;-76
2022/03/15 02:46:48;;;;;;;11.85;8.73;;;2.60;99.90;;;;;;4989603;28;20081;-75
2022/03/15 02:49:14;;;;;;;15.02;9.45;;;2.60;99.90;;;;;;4986851;28;20126;-75
2022/03/15 02:51:40;;;;;;;14.95;9.70;;;2.50;99.90;;;;;;4986678;28;20078;-75
2022/03/15 02:54:08;;;;;;;14.88;10.07;;;2.60;99.90;;;;;;4985449;28;20042;-75
2022/03/15 02:56:38;;;;;;;18.10;11.60;;;2.50;99.90;;;;;;4986722;28;20109;-72
2022/03/15 02:59:03;;;;;;;13.70;9.67;;;2.70;99.90;;;;;;4989723;28;20054;-72
2022/03/15 03:01:29;;;;;;;14.23;8.75;;;2.80;99.90;;;;;;4990081;28;20050;-72
2022/03/15 03:03:55;;;;;;;16.30;10.40;;;2.60;99.90;;;;;;4989904;28;20495;-72
2022/03/15 03:06:21;;;;;;;15.48;9.02;;;2.60;99.90;;;;;;4989745;28;20113;-72
2022/03/15 03:08:47;;;;;;;12.48;8.60;;;2.70;99.90;;;;;;4985471;28;20054;-72
2022/03/15 03:11:13;;;;;;;14.15;9.32;;;2.80;99.90;;;;;;4996338;28;20528;-72
2022/03/15 03:13:42;;;;;;;10.70;9.27;;;2.70;99.90;;;;;;4990818;28;20046;-71
2022/03/15 03:16:08;;;;;;;19.63;14.55;;;2.80;99.90;;;;;;4983325;28;20517;-71
2022/03/15 03:18:34;;;;;;;23.80;15.80;;;2.70;99.90;;;;;;4987804;28;20105;-72
2022/03/15 03:21:05;;;;;;;11.52;7.97;;;2.50;99.90;;;;;;4986608;28;20043;-72
2022/03/15 03:23:34;;;;;;;13.57;9.15;;;2.30;99.90;;;;;;4989205;28;20114;-72
2022/03/15 03:26:04;;;;;;;15.02;9.98;;;2.30;99.90;;;;;;4986138;28;20054;-72
2022/03/15 03:28:36;;;;;;;14.80;10.38;;;2.30;99.90;;;;;;4994926;28;20276;-72
2022/03/15 03:31:07;;;;;;;13.73;8.30;;;2.30;99.90;;;;;;4988360;28;20039;-72
2022/03/15 03:33:33;;;;;;;14.88;8.73;;;2.20;99.90;;;;;;4985881;28;20047;-72
2022/03/15 03:35:59;;;;;;;14.25;10.10;;;2.30;99.90;;;;;;4985874;28;20294;-72
2022/03/15 03:38:26;;;;;;;11.95;9.75;;;2.10;99.90;;;;;;4989293;28;20042;-72
2022/03/15 03:40:52;;;;;;;13.75;9.75;;;2.10;99.90;;;;;;4986957;28;20423;-72
2022/03/15 03:43:17;;;;;;;16.50;12.27;;;2.20;99.90;;;;;;4985197;28;20051;-71
2022/03/15 03:45:43;;;;;;;19.27;13.55;;;2.20;99.90;;;;;;4989494;28;20568;-71
2022/03/15 03:48:09;;;;;;;15.63;10.98;;;2.10;99.90;;;;;;4988160;28;20039;-71
2022/03/15 03:50:36;;;;;;;18.73;13.77;;;2.30;99.90;;;;;;4989649;28;20074;-72
2022/03/15 03:53:03;;;;;;;10.40;8.98;;;2.20;99.90;;;;;;4987291;28;20085;-72
2022/03/15 03:55:29;;;;;;;9.43;6.55;;;2.10;99.90;;;;;;4984012;28;20051;-72
2022/03/15 03:57:55;;;;;;;10.23;7.93;;;2.30;99.90;;;;;;4985673;28;20058;-72
2022/03/15 04:00:21;;;;;;;10.75;8.55;;;2.20;99.90;;;;;;4990060;28;20109;-72
2022/03/15 04:02:47;;;;;;;10.73;8.57;;;2.40;99.90;;;;;;4970763;28;20053;-71
2022/03/15 04:05:15;;;;;;;11.73;8.40;;;2.40;99.90;;;;;;4991546;28;20078;-71
2022/03/15 04:07:43;;;;;;;13.77;10.13;;;2.40;99.90;;;;;;4984536;28;20063;-71
2022/03/15 04:10:10;;;;;;;17.80;13.25;;;2.60;99.90;;;;;;4985701;28;20058;-71
2022/03/15 04:12:36;;;;;;;22.48;13.20;;;2.70;99.90;;;;;;4986619;28;20057;-71
2022/03/15 04:15:03;;;;;;;19.40;14.30;;;2.50;99.90;;;;;;4987926;28;20074;-71
2022/03/15 04:17:29;;;;;;;22.08;15.65;;;2.60;99.90;;;;;;4987560;28;20050;-71
2022/03/15 04:19:55;;;;;;;25.52;15.77;;;2.80;99.90;;;;;;4991620;28;20137;-71
2022/03/15 04:22:21;;;;;;;25.80;15.35;;;2.80;99.90;;;;;;4987109;28;20116;-71
2022/03/15 04:24:46;;;;;;;24.48;15.23;;;2.80;99.90;;;;;;4988065;28;20042;-71
2022/03/15 04:27:13;;;;;;;33.53;19.80;;;3.10;99.90;;;;;;4986829;28;20046;-71
2022/03/15 04:29:38;;;;;;;31.35;20.35;;;3.20;99.90;;;;;;4988058;28;20046;-71
2022/03/15 04:32:05;;;;;;;34.30;21.27;;;3.30;99.90;;;;;;4985258;28;20065;-71
2022/03/15 04:34:31;;;;;;;33.90;21.25;;;3.50;99.90;;;;;;4987680;28;20051;-71
2022/03/15 04:37:00;;;;;;;41.42;20.75;;;3.80;99.90;;;;;;4985389;28;20126;-71
2022/03/15 04:39:26;;;;;;;41.80;21.95;;;4.00;99.90;;;;;;4987320;28;20097;-71
2022/03/15 04:41:52;;;;;;;36.78;20.85;;;4.00;99.90;;;;;;4967071;28;20105;-71
2022/03/15 04:44:18;;;;;;;35.30;20.33;;;4.20;99.90;;;;;;4984303;28;20053;-71
2022/03/15 04:46:44;;;;;;;42.13;21.65;;;4.20;99.90;;;;;;4985592;28;20046;-71
2022/03/15 04:49:10;;;;;;;30.65;19.13;;;4.30;99.90;;;;;;4992717;28;20047;-71
2022/03/15 04:51:36;;;;;;;25.58;16.10;;;4.40;99.90;;;;;;4990184;28;20045;-71
2022/03/15 04:54:02;;;;;;;29.23;18.67;;;4.20;99.90;;;;;;4992512;28;20070;-71
2022/03/15 04:56:28;;;;;;;28.98;18.70;;;4.00;99.90;;;;;;4993558;28;20051;-71
2022/03/15 04:58:54;;;;;;;30.08;17.58;;;4.10;99.90;;;;;;4995142;28;20062;-71
2022/03/15 05:01:19;;;;;;;30.30;18.90;;;4.10;99.90;;;;;;4992413;28;20054;-71
2022/03/15 05:03:45;;;;;;;30.40;19.58;;;4.20;99.90;;;;;;4991663;28;20042;-71
2022/03/15 05:06:11;;;;;;;31.88;18.77;;;4.10;99.90;;;;;;4990196;28;20121;-71
2022/03/15 05:08:37;;;;;;;29.23;19.30;;;4.00;99.90;;;;;;4994190;28;20065;-71
2022/03/15 05:11:09;;;;;;;28.80;17.70;;;4.10;99.90;;;;;;4992797;28;20642;-71
2022/03/15 05:13:46;;;;;;;28.30;17.88;;;4.10;99.90;;;;;;4992437;28;20070;-71
2022/03/15 05:16:21;;;;;;;22.05;15.35;;;4.10;99.90;;;;;;4993209;28;20062;-72
2022/03/15 05:18:51;;;;;;;23.17;14.80;;;4.10;99.90;;;;;;4995831;28;20050;-72
2022/03/15 05:21:18;;;;;;;22.83;14.23;;;4.20;99.90;;;;;;4994344;28;20070;-71
2022/03/15 05:23:47;;;;;;;24.45;16.50;;;4.10;99.90;;;;;;4993231;28;20050;-71
2022/03/15 05:26:15;;;;;;;24.27;18.05;;;4.00;99.90;;;;;;4991753;28;20051;-71
2022/03/15 05:28:42;;;;;;;28.83;16.70;;;4.20;99.90;;;;;;4993565;28;20055;-71
2022/03/15 05:31:08;;;;;;;24.80;17.52;;;4.00;99.90;;;;;;4994334;28;20068;-71
2022/03/15 05:33:34;;;;;;;27.80;17.13;;;4.20;99.90;;;;;;4998655;28;20070;-72
2022/03/15 05:36:00;;;;;;;27.38;16.55;;;4.20;99.90;;;;;;4998047;28;20047;-69
2022/03/15 05:38:26;;;;;;;30.48;19.27;;;4.00;99.90;;;;;;4991659;28;20051;-69
2022/03/15 05:40:52;;;;;;;29.45;19.90;;;4.00;99.90;;;;;;4990245;28;20082;-69
2022/03/15 05:43:21;;;;;;;32.22;19.88;;;4.20;99.90;;;;;;4993994;28;20070;-72
2022/03/15 05:45:46;;;;;;;30.13;19.77;;;4.10;99.90;;;;;;4993572;28;20043;-70
2022/03/15 05:48:12;;;;;;;35.35;19.70;;;4.20;99.90;;;;;;4997847;28;20113;-69
2022/03/15 05:50:38;;;;;;;35.53;22.13;;;4.00;99.90;;;;;;5004128;28;20127;-68
2022/03/15 05:53:05;;;;;;;36.38;22.90;;;4.00;99.90;;;;;;4998049;28;20074;-67
2022/03/15 05:55:37;;;;;;;42.05;23.55;;;4.10;99.90;;;;;;5002722;28;20054;-68
2022/03/15 05:58:03;;;;;;;35.60;21.17;;;4.00;99.90;;;;;;5003365;28;20054;-68
2022/03/15 06:00:32;;;;;;;38.10;21.88;;;4.10;99.90;;;;;;4998736;28;20135;-68
2022/03/15 06:02:58;;;;;;;41.13;22.52;;;4.00;99.90;;;;;;4996803;28;20054;-70
2022/03/15 06:05:24;;;;;;;30.92;21.35;;;4.00;99.90;;;;;;4995058;28;20049;-70
2022/03/15 06:07:53;;;;;;;36.80;22.65;;;4.00;99.90;;;;;;4981104;28;20049;-69
2022/03/15 06:10:23;;;;;;;45.45;25.83;;;4.00;99.90;;;;;;4993025;28;20043;-69
2022/03/15 06:12:50;;;;;;;46.42;27.50;;;4.30;99.90;;;;;;4997517;28;20121;-69
2022/03/15 06:15:17;;;;;;;54.38;32.13;;;4.20;99.90;;;;;;4976687;28;20042;-69
2022/03/15 06:17:56;;;;;;;50.38;28.38;;;4.40;99.90;;;;;;4993279;28;20043;-72
2022/03/15 06:20:23;;;;;;;52.95;28.67;;;4.30;99.90;;;;;;4993002;28;20053;-78
2022/03/15 06:22:49;;;;;;;50.05;29.90;;;4.50;99.90;;;;;;4998839;28;20491;-70
2022/03/15 06:25:15;;;;;;;51.55;30.17;;;4.40;99.90;;;;;;5002395;28;20053;-71
2022/03/15 06:27:42;;;;;;;48.40;30.92;;;4.60;99.90;;;;;;4978969;28;20622;-71
2022/03/15 06:30:09;;;;;;;51.80;31.63;;;4.70;99.90;;;;;;4995829;28;20046;-70
2022/03/15 06:32:34;;;;;;;54.97;29.88;;;4.70;99.90;;;;;;4996306;28;20042;-71
2022/03/15 06:35:02;;;;;;;50.65;28.27;;;4.80;99.90;;;;;;4994076;28;20045;-71
2022/03/15 06:37:28;;;;;;;50.05;28.90;;;4.90;99.90;;;;;;4977027;28;20054;-71
2022/03/15 06:39:55;;;;;;;45.13;27.35;;;5.00;99.90;;;;;;4993546;28;20082;-74
2022/03/15 06:42:22;;;;;;;51.22;28.77;;;4.90;99.90;;;;;;4993098;28;20110;-77
2022/03/15 06:44:48;;;;;;;53.28;30.45;;;4.80;99.90;;;;;;4989569;28;20043;-70
2022/03/15 06:47:14;;;;;;;50.90;28.65;;;5.00;99.90;;;;;;4987845;28;20073;-72
2022/03/15 06:49:40;;;;;;;56.90;29.75;;;4.80;99.90;;;;;;4991765;28;20411;-73
2022/03/15 06:52:06;;;;;;;53.45;30.10;;;5.00;99.90;;;;;;4986699;28;20034;-73
2022/03/15 06:54:31;;;;;;;52.80;30.40;;;5.10;99.90;;;;;;4986394;28;20109;-72
2022/03/15 06:56:57;;;;;;;49.95;28.23;;;5.00;99.90;;;;;;4986053;28;20463;-73
2022/03/15 06:59:23;;;;;;;51.17;28.05;;;5.00;99.90;;;;;;4987960;28;20042;-73
2022/03/15 07:01:49;;;;;;;51.17;27.38;;;5.00;99.90;;;;;;4989055;28;20077;-73
2022/03/15 07:04:17;;;;;;;50.17;28.75;;;5.10;99.90;;;;;;4988241;28;20051;-73
2022/03/15 07:06:43;;;;;;;51.20;28.27;;;5.30;99.90;;;;;;4993193;28;20101;-74
2022/03/15 07:09:09;;;;;;;49.70;29.85;;;5.20;99.90;;;;;;4993490;28;20091;-74
2022/03/15 07:11:35;;;;;;;52.70;31.13;;;5.20;99.90;;;;;;4991508;28;20062;-78
2022/03/15 07:14:03;;;;;;;53.03;31.63;;;5.30;99.90;;;;;;4989529;28;20047;-73
2022/03/15 07:16:29;;;;;;;52.08;30.98;;;5.30;99.90;;;;;;4987328;28;20105;-71
2022/03/15 07:18:57;;;;;;;52.75;31.73;;;5.50;99.90;;;;;;4986043;28;20496;-68
2022/03/15 07:21:23;;;;;;;59.08;31.83;;;5.60;99.90;;;;;;4990160;28;20075;-75
2022/03/15 07:23:48;;;;;;;56.47;31.05;;;5.60;99.90;;;;;;4987996;28;20047;-72
2022/03/15 07:26:14;;;;;;;52.25;32.40;;;5.40;99.90;;;;;;4993211;28;20053;-72
2022/03/15 07:28:40;;;;;;;51.25;31.27;;;5.80;99.90;;;;;;4988779;28;20072;-72
2022/03/15 07:31:06;;;;;;;58.92;33.22;;;5.70;99.90;;;;;;4987407;28;20113;-72
2022/03/15 07:33:32;;;;;;;65.88;35.42;;;5.70;99.90;;;;;;4988519;28;20053;-73
2022/03/15 07:36:01;;;;;;;54.63;33.47;;;5.90;99.90;;;;;;4990083;28;20083;-72
2022/03/15 07:38:28;;;;;;;53.53;32.38;;;5.70;99.90;;;;;;4989110;28;20078;-73
2022/03/15 07:40:57;;;;;;;54.55;31.48;;;5.80;99.90;;;;;;4968892;28;20125;-72
2022/03/15 07:43:23;;;;;;;50.70;30.57;;;5.90;99.90;;;;;;4992788;28;20094;-73
2022/03/15 07:45:50;;;;;;;56.00;32.47;;;5.90;99.90;;;;;;4985954;28;20070;-73
2022/03/15 07:48:18;;;;;;;55.92;34.38;;;5.80;99.90;;;;;;4987316;28;20133;-72
2022/03/15 07:50:44;;;;;;;55.63;33.35;;;6.00;99.90;;;;;;4968731;28;20047;-73
2022/03/15 07:53:10;;;;;;;58.33;33.40;;;5.80;99.90;;;;;;4970817;28;20169;-73
2022/03/15 07:55:36;;;;;;;56.63;33.33;;;6.00;99.90;;;;;;4986293;28;20085;-72
2022/03/15 07:58:02;;;;;;;60.15;32.90;;;6.10;99.90;;;;;;4989194;28;20523;-72
2022/03/15 08:00:28;;;;;;;58.65;34.05;;;6.10;99.90;;;;;;4981349;28;20074;-72
2022/03/15 08:02:53;;;;;;;59.08;33.40;;;6.10;99.90;;;;;;4990299;28;20057;-72
2022/03/15 08:05:20;;;;;;;61.28;34.33;;;6.10;99.90;;;;;;4984947;28;20062;-72
2022/03/15 08:07:45;;;;;;;58.65;33.50;;;6.00;99.90;;;;;;4985633;28;20046;-72
2022/03/15 08:10:12;;;;;;;56.60;34.80;;;6.10;99.90;;;;;;4985963;28;20057;-72
2022/03/15 08:12:39;;;;;;;59.10;33.10;;;6.00;99.90;;;;;;4985748;28;20043;-72
2022/03/15 08:15:06;;;;;;;56.97;32.95;;;6.20;99.90;;;;;;4988782;28;20415;-72
2022/03/15 08:17:35;;;;;;;54.83;32.92;;;6.20;99.90;;;;;;4991120;28;20113;-72
2022/03/15 08:20:01;;;;;;;59.03;34.05;;;6.10;99.90;;;;;;4984893;28;20054;-72
2022/03/15 08:22:29;;;;;;;55.63;36.42;;;6.10;99.90;;;;;;4986108;28;20051;-72
2022/03/15 08:24:55;;;;;;;58.63;34.40;;;6.10;99.90;;;;;;4985923;28;20050;-72
2022/03/15 08:27:21;;;;;;;55.53;33.05;;;6.10;99.90;;;;;;4991630;28;20050;-72
2022/03/15 08:29:47;;;;;;;57.53;34.63;;;6.20;99.90;;;;;;4987694;28;20069;-72
2022/03/15 08:32:13;;;;;;;60.05;33.67;;;6.10;99.90;;;;;;4990677;28;20106;-72
2022/03/15 08:34:39;;;;;;;56.95;34.55;;;6.30;99.90;;;;;;4986653;28;20050;-73
2022/03/15 08:37:05;;;;;;;61.08;34.15;;;6.20;99.90;;;;;;4988102;28;20055;-72
2022/03/15 08:39:31;;;;;;;60.60;35.80;;;6.30;99.90;;;;;;4986011;28;20051;-72
2022/03/15 08:41:57;;;;;;;60.38;34.67;;;6.20;99.90;;;;;;4989387;28;20085;-72
2022/03/15 08:44:23;;;;;;;63.67;35.55;;;6.20;99.90;;;;;;4987272;28;20050;-72
2022/03/15 08:46:50;;;;;;;61.25;36.42;;;6.40;99.90;;;;;;4989667;28;20046;-72
2022/03/15 08:49:18;;;;;;;67.57;38.28;;;6.40;99.90;;;;;;4987406;28;20043;-73
2022/03/15 08:51:45;;;;;;;63.95;37.65;;;6.40;99.90;;;;;;4991616;28;20494;-72
2022/03/15 08:54:11;;;;;;;66.97;37.20;;;6.30;99.90;;;;;;4985123;28;20074;-73
2022/03/15 08:56:41;;;;;;;61.60;37.58;;;6.40;99.90;;;;;;4986118;28;20055;-73
2022/03/15 08:59:15;;;;;;;64.95;36.83;;;6.50;99.90;;;;;;4986678;28;20054;-72
2022/03/15 09:01:42;;;;;;;63.70;37.58;;;6.40;99.90;;;;;;4984379;28;20077;-72
2022/03/15 09:04:08;;;;;;;58.95;36.38;;;6.60;99.90;;;;;;4986787;28;20081;-72
2022/03/15 09:06:34;;;;;;;61.92;34.95;;;6.40;99.90;;;;;;4990240;28;20054;-72
2022/03/15 09:09:00;;;;;;;58.72;36.90;;;6.50;99.90;;;;;;4985601;28;20057;-71
2022/03/15 09:11:28;;;;;;;58.67;36.08;;;6.50;99.90;;;;;;4991512;28;20082;-71
2022/03/15 09:13:54;;;;;;;62.45;38.22;;;6.70;99.90;;;;;;4986570;28;20050;-71
2022/03/15 09:16:20;;;;;;;52.85;34.88;;;6.60;99.90;;;;;;4983260;28;20043;-71
2022/03/15 09:18:46;;;;;;;62.45;36.95;;;6.60;99.90;;;;;;4986359;28;20178;-72
2022/03/15 09:21:12;;;;;;;62.65;37.78;;;6.80;99.90;;;;;;4989064;28;20093;-72
2022/03/15 09:23:39;;;;;;;63.28;40.95;;;6.60;99.90;;;;;;4986435;28;20051;-72
2022/03/15 09:26:05;;;;;;;62.60;36.30;;;6.80;99.90;;;;;;4987911;28;20043;-72
2022/03/15 09:28:31;;;;;;;59.08;35.15;;;6.90;99.90;;;;;;4982939;28;20055;-72
2022/03/15 09:30:58;;;;;;;58.25;36.17;;;6.90;99.90;;;;;;4982264;28;20098;-72
2022/03/15 09:33:23;;;;;;;57.40;34.75;;;6.90;99.90;;;;;;4987390;28;20054;-72
2022/03/15 09:35:49;;;;;;;60.10;36.45;;;6.80;99.90;;;;;;4993689;28;20043;-72
2022/03/15 09:38:15;;;;;;;58.70;37.22;;;6.80;99.90;;;;;;4989137;28;20057;-72
2022/03/15 09:40:43;;;;;;;58.28;36.85;;;7.00;99.90;;;;;;4990596;28;20071;-72
2022/03/15 09:43:12;;;;;;;58.10;37.13;;;7.10;99.90;;;;;;4987750;28;20054;-72
2022/03/15 09:45:38;;;;;;;57.33;35.92;;;7.20;99.90;;;;;;4989608;28;20055;-72
2022/03/15 09:48:08;;;;;;;63.80;36.08;;;7.20;99.90;;;;;;4987404;28;20050;-72
2022/03/15 09:50:35;;;;;;;62.72;38.22;;;7.10;99.90;;;;;;4989607;28;20086;-73
2022/03/15 09:53:01;;;;;;;63.25;38.78;;;7.00;99.90;;;;;;4988100;28;20054;-72
2022/03/15 09:55:28;;;;;;;60.92;37.67;;;7.10;99.90;;;;;;4990259;28;20058;-72
2022/03/15 09:57:54;;;;;;;59.30;38.10;;;7.00;99.90;;;;;;4972404;28;20086;-72
2022/03/15 10:00:20;;;;;;;59.45;37.40;;;7.10;99.90;;;;;;4995192;28;20082;-72
2022/03/15 10:02:46;;;;;;;59.92;38.22;;;7.20;99.90;;;;;;4992190;28;20038;-72
2022/03/15 10:05:13;;;;;;;61.40;38.00;;;7.40;99.90;;;;;;4989663;28;20047;-72
2022/03/15 10:07:40;;;;;;;59.10;39.33;;;7.30;99.90;;;;;;4988408;28;20082;-71
2022/03/15 10:10:14;;;;;;;59.85;37.70;;;7.40;99.90;;;;;;4986481;28;20057;-72
2022/03/15 10:12:39;;;;;;;61.75;39.53;;;7.50;99.90;;;;;;4986396;28;20074;-72
2022/03/15 10:15:19;;;;;;;59.50;37.72;;;7.60;99.90;;;;;;4995284;28;20065;-71
2022/03/15 10:17:55;;;;;;;62.38;39.13;;;7.50;99.90;;;;;;4992370;28;20098;-72
2022/03/15 10:20:28;;;;;;;53.58;38.67;;;7.80;99.90;;;;;;4989216;28;20479;-72
2022/03/15 10:23:03;;;;;;;54.85;38.70;;;7.70;99.90;;;;;;4986489;28;20043;-71
2022/03/15 10:25:33;;;;;;;53.00;36.92;;;7.90;99.90;;;;;;4986340;28;20050;-71
2022/03/15 10:28:01;;;;;;;49.63;36.80;;;7.90;99.90;;;;;;4987712;28;20034;-72
2022/03/15 10:30:29;;;;;;;57.10;37.42;;;8.00;99.90;;;;;;4988490;28;20103;-71
2022/03/15 10:32:56;;;;;;;49.10;35.30;;;7.90;99.90;;;;;;4996029;28;20049;-71
2022/03/15 10:35:28;;;;;;;55.38;38.10;;;8.10;99.90;;;;;;4993248;28;20061;-71
2022/03/15 10:37:55;;;;;;;54.03;37.20;;;8.10;99.90;;;;;;4990878;28;20051;-71
2022/03/15 10:40:42;;;;;;;51.83;37.67;;;8.20;99.90;;;;;;4988453;28;20055;-72
2022/03/15 10:43:10;;;;;;;47.28;34.15;;;8.30;99.90;;;;;;4989028;28;20491;-71
2022/03/15 10:45:40;;;;;;;48.45;34.65;;;8.40;99.90;;;;;;4987451;28;20050;-71
2022/03/15 10:48:22;;;;;;;51.67;35.90;;;8.50;99.90;;;;;;4992453;28;20110;-71
2022/03/15 10:50:54;;;;;;;53.17;35.15;;;8.30;99.90;;;;;;4984850;28;20042;-71
2022/03/15 10:53:23;;;;;;;60.50;37.10;;;8.40;99.90;;;;;;4998058;28;20046;-72
2022/03/15 10:55:48;;;;;;;54.28;36.53;;;8.40;99.90;;;;;;4990441;28;20114;-72
2022/03/15 10:58:21;;;;;;;48.65;36.08;;;8.30;99.90;;;;;;4989618;28;20047;-71
2022/03/15 11:00:53;;;;;;;47.83;35.72;;;8.40;99.90;;;;;;4985711;28;20057;-72
2022/03/15 11:03:23;;;;;;;50.03;36.05;;;8.50;99.90;;;;;;4984346;28;20054;-72
2022/03/15 11:05:50;;;;;;;52.83;36.88;;;8.50;99.90;;;;;;4986564;28;20081;-72
2022/03/15 11:08:18;;;;;;;47.58;35.95;;;8.60;99.90;;;;;;4988410;28;20058;-71
2022/03/15 11:10:50;;;;;;;55.00;37.78;;;8.80;99.90;;;;;;4990330;28;20047;-71
2022/03/15 11:13:17;;;;;;;53.92;35.42;;;9.00;99.90;;;;;;4988451;28;20058;-71
2022/03/15 11:15:48;;;;;;;52.63;38.33;;;9.00;99.90;;;;;;4986201;28;20042;-72
2022/03/15 11:18:16;;;;;;;50.05;34.50;;;9.10;99.90;;;;;;4985035;28;20062;-72
2022/03/15 11:20:44;;;;;;;49.75;35.40;;;9.10;99.90;;;;;;4971048;28;20086;-71
2022/03/15 11:23:13;;;;;;;46.05;34.22;;;9.30;99.90;;;;;;4988565;28;20046;-72
2022/03/15 11:25:42;;;;;;;51.13;34.15;;;9.40;99.90;;;;;;4987746;28;20047;-72
2022/03/15 11:28:14;;;;;;;45.10;34.40;;;9.50;99.90;;;;;;4990655;28;20105;-72
2022/03/15 11:30:42;;;;;;;45.22;34.45;;;9.50;99.90;;;;;;4984258;28;20061;-72
2022/03/15 11:33:08;;;;;;;45.50;33.10;;;9.70;99.90;;;;;;4985355;28;20074;-72
2022/03/15 11:35:38;;;;;;;47.67;33.80;;;9.80;99.90;;;;;;4986588;28;20085;-72
2022/03/15 11:38:07;;;;;;;40.97;32.38;;;9.80;99.90;;;;;;4992383;28;20093;-71
2022/03/15 11:40:33;;;;;;;42.28;32.53;;;9.80;99.90;;;;;;4985761;28;20055;-71
2022/03/15 11:43:16;;;;;;;45.42;31.73;;;9.90;99.90;;;;;;4988369;28;20127;-71
2022/03/15 11:45:55;;;;;;;45.30;34.05;;;10.00;99.90;;;;;;4985142;28;20129;-72
2022/03/15 11:48:41;;;;;;;39.78;31.05;;;10.00;99.90;;;;;;4987119;28;20153;-71
2022/03/15 11:51:21;;;;;;;42.22;32.60;;;10.10;99.90;;;;;;4985086;28;20105;-71
2022/03/15 11:54:11;;;;;;;40.85;31.70;;;10.00;99.90;;;;;;4985395;28;20050;-71
2022/03/15 11:56:48;;;;;;;43.53;31.38;;;10.10;99.90;;;;;;4978889;28;20050;-71
2022/03/15 11:59:14;;;;;;;42.00;31.98;;;10.30;99.90;;;;;;4984665;28;20078;-71
2022/03/15 12:01:45;;;;;;;38.78;29.52;;;10.20;99.90;;;;;;4986486;28;20046;-71
2022/03/15 12:04:11;;;;;;;40.17;28.52;;;10.40;99.90;;;;;;4988026;28;20050;-71
2022/03/15 12:06:37;;;;;;;38.55;27.83;;;10.30;99.90;;;;;;4987395;28;20068;-71
2022/03/15 12:09:12;;;;;;;37.22;28.25;;;10.40;99.90;;;;;;4993686;28;20061;-71
2022/03/15 12:11:39;;;;;;;38.03;28.88;;;10.30;99.90;;;;;;4986837;28;20046;-71
2022/03/15 12:14:09;;;;;;;38.67;27.95;;;10.50;99.90;;;;;;4985574;28;20038;-71
2022/03/15 12:16:47;;;;;;;34.10;26.23;;;10.40;99.90;;;;;;4985822;28;20098;-71
2022/03/15 12:21:57;;;;;;;35.08;27.35;;;10.40;99.90;;;;;;4990409;28;20097;-71
2022/03/15 12:24:40;;;;;;;38.47;27.88;;;10.40;99.90;;;;;;4989468;28;20054;-71
2022/03/15 12:27:10;;;;;;;35.28;27.90;;;10.40;99.90;;;;;;4989522;28;20110;-71
2022/03/15 12:29:36;;;;;;;;;;;10.40;99.90;;;;;;4987536;28;20035;-71
2022/03/15 12:32:13;;;;;;;35.35;26.40;;;10.50;99.90;;;;;;4985791;28;19949;-71
2022/03/15 12:34:43;;;;;;;34.53;25.63;;;10.60;99.90;;;;;;4971041;28;20126;-71
2022/03/15 12:37:09;;;;;;;;;;;10.60;99.90;;;;;;4987238;28;20034;-71
2022/03/15 12:39:35;;;;;;;33.80;25.35;;;10.60;99.90;;;;;;4987552;28;19926;-71
2022/03/15 12:42:13;;;;;;;28.92;21.58;;;10.70;99.90;;;;;;4987749;28;20491;-71